sensor_id;sensor_type;location;lat;lon;timestamp;P1;durP1;ratioP1;P2;durP2;ratioP2
77876;SDS011;67251;50.844;7.978;2023-03-13T00:00:18;10.07;;;2.33;;
77876;SDS011;67251;50.844;7.978;2023-03-13T00:02:44;11.00;;;2.33;;
77876;SDS011;67251;50.844;7.978;2023-03-13T00:05:10;8.80;;;1.95;;
77876;SDS011;67251;50.844;7.978;2023-03-13T00:07:37;13.18;;;1.90;;
77876;SDS011;67251;50.844;7.978;2023-03-13T00:10:02;10.38;;;1.95;;
77876;SDS011;67251;50.844;7.978;2023-03-13T00:12:28;9.68;;;2.05;;
77876;SDS011;67251;50.844;7.978;2023-03-13T00:14:54;9.25;;;1.38;;
77876;SDS011;67251;50.844;7.978;2023-03-13T00:17:19;14.27;;;2.03;;
77876;SDS011;67251;50.844;7.978;2023-03-13T00:19:44;11.68;;;1.73;;
77876;SDS011;67251;50.844;7.978;2023-03-13T00:22:10;8.48;;;1.80;;
77876;SDS011;67251;50.844;7.978;2023-03-13T00:24:35;10.75;;;1.90;;
77876;SDS011;67251;50.844;7.978;2023-03-13T00:27:01;10.68;;;2.10;;
77876;SDS011;67251;50.844;7.978;2023-03-13T00:29:29;11.00;;;2.50;;
77876;SDS011;67251;50.844;7.978;2023-03-13T00:31:54;11.38;;;1.85;;
77876;SDS011;67251;50.844;7.978;2023-03-13T00:34:20;10.57;;;1.88;;
77876;SDS011;67251;50.844;7.978;2023-03-13T00:36:46;13.25;;;1.90;;
77876;SDS011;67251;50.844;7.978;2023-03-13T00:39:12;10.23;;;2.75;;
77876;SDS011;67251;50.844;7.978;2023-03-13T00:41:37;11.75;;;2.10;;
77876;SDS011;67251;50.844;7.978;2023-03-13T00:44:02;9.70;;;2.05;;
77876;SDS011;67251;50.844;7.978;2023-03-13T00:46:28;11.00;;;2.00;;
77876;SDS011;67251;50.844;7.978;2023-03-13T00:48:55;7.50;;;1.38;;
77876;SDS011;67251;50.844;7.978;2023-03-13T00:51:21;7.55;;;1.80;;
77876;SDS011;67251;50.844;7.978;2023-03-13T00:53:50;11.93;;;2.15;;
77876;SDS011;67251;50.844;7.978;2023-03-13T00:56:16;8.98;;;2.20;;
77876;SDS011;67251;50.844;7.978;2023-03-13T00:58:43;15.00;;;2.28;;
77876;SDS011;67251;50.844;7.978;2023-03-13T01:01:11;11.30;;;1.73;;
77876;SDS011;67251;50.844;7.978;2023-03-13T01:03:38;11.70;;;1.52;;
77876;SDS011;67251;50.844;7.978;2023-03-13T01:06:05;11.73;;;1.50;;
77876;SDS011;67251;50.844;7.978;2023-03-13T01:08:33;9.73;;;1.58;;
77876;SDS011;67251;50.844;7.978;2023-03-13T01:11:06;10.10;;;1.60;;
77876;SDS011;67251;50.844;7.978;2023-03-13T01:13:33;8.80;;;1.63;;
77876;SDS011;67251;50.844;7.978;2023-03-13T01:16:12;9.88;;;2.00;;
77876;SDS011;67251;50.844;7.978;2023-03-13T01:18:40;6.35;;;1.33;;
77876;SDS011;67251;50.844;7.978;2023-03-13T01:21:07;12.77;;;2.25;;
77876;SDS011;67251;50.844;7.978;2023-03-13T01:23:33;11.68;;;1.73;;
77876;SDS011;67251;50.844;7.978;2023-03-13T01:25:58;12.38;;;1.90;;
77876;SDS011;67251;50.844;7.978;2023-03-13T01:28:24;7.20;;;1.50;;
77876;SDS011;67251;50.844;7.978;2023-03-13T01:30:50;10.63;;;1.92;;
77876;SDS011;67251;50.844;7.978;2023-03-13T01:33:16;10.77;;;2.25;;
77876;SDS011;67251;50.844;7.978;2023-03-13T01:35:42;11.77;;;1.80;;
77876;SDS011;67251;50.844;7.978;2023-03-13T01:38:08;15.13;;;2.10;;
77876;SDS011;67251;50.844;7.978;2023-03-13T01:40:44;10.32;;;1.50;;
77876;SDS011;67251;50.844;7.978;2023-03-13T01:43:16;8.98;;;1.80;;
77876;SDS011;67251;50.844;7.978;2023-03-13T01:46:00;8.60;;;1.75;;
77876;SDS011;67251;50.844;7.978;2023-03-13T01:53:56;10.15;;;1.80;;
77876;SDS011;67251;50.844;7.978;2023-03-13T01:56:35;13.68;;;2.13;;
77876;SDS011;67251;50.844;7.978;2023-03-13T01:59:05;11.55;;;1.83;;
77876;SDS011;67251;50.844;7.978;2023-03-13T02:01:34;8.25;;;1.15;;
77876;SDS011;67251;50.844;7.978;2023-03-13T02:04:00;14.05;;;2.25;;
77876;SDS011;67251;50.844;7.978;2023-03-13T02:06:27;7.82;;;1.55;;
77876;SDS011;67251;50.844;7.978;2023-03-13T02:08:56;11.45;;;2.22;;
77876;SDS011;67251;50.844;7.978;2023-03-13T02:14:32;10.43;;;1.77;;
77876;SDS011;67251;50.844;7.978;2023-03-13T02:16:59;7.32;;;1.63;;
77876;SDS011;67251;50.844;7.978;2023-03-13T02:19:34;11.63;;;2.13;;
77876;SDS011;67251;50.844;7.978;2023-03-13T02:22:08;7.95;;;1.55;;
77876;SDS011;67251;50.844;7.978;2023-03-13T02:27:31;8.88;;;1.83;;
77876;SDS011;67251;50.844;7.978;2023-03-13T02:29:57;5.55;;;1.10;;
77876;SDS011;67251;50.844;7.978;2023-03-13T02:32:23;9.75;;;1.80;;
77876;SDS011;67251;50.844;7.978;2023-03-13T02:34:50;7.47;;;1.80;;
77876;SDS011;67251;50.844;7.978;2023-03-13T02:37:20;8.20;;;1.70;;
77876;SDS011;67251;50.844;7.978;2023-03-13T02:39:48;9.25;;;1.60;;
77876;SDS011;67251;50.844;7.978;2023-03-13T02:42:16;8.85;;;1.65;;
77876;SDS011;67251;50.844;7.978;2023-03-13T02:44:44;10.93;;;1.80;;
77876;SDS011;67251;50.844;7.978;2023-03-13T02:47:11;8.80;;;1.35;;
77876;SDS011;67251;50.844;7.978;2023-03-13T02:49:41;8.63;;;1.63;;
77876;SDS011;67251;50.844;7.978;2023-03-13T02:52:29;6.82;;;1.33;;
77876;SDS011;67251;50.844;7.978;2023-03-13T02:54:59;4.93;;;1.10;;
77876;SDS011;67251;50.844;7.978;2023-03-13T02:57:54;8.70;;;1.40;;
77876;SDS011;67251;50.844;7.978;2023-03-13T03:00:20;6.20;;;1.63;;
77876;SDS011;67251;50.844;7.978;2023-03-13T03:02:51;5.18;;;1.23;;
77876;SDS011;67251;50.844;7.978;2023-03-13T03:05:18;7.50;;;1.48;;
77876;SDS011;67251;50.844;7.978;2023-03-13T03:07:44;5.03;;;1.30;;
77876;SDS011;67251;50.844;7.978;2023-03-13T03:10:09;7.80;;;1.60;;
77876;SDS011;67251;50.844;7.978;2023-03-13T03:12:35;9.98;;;1.75;;
77876;SDS011;67251;50.844;7.978;2023-03-13T03:15:01;6.68;;;1.23;;
77876;SDS011;67251;50.844;7.978;2023-03-13T03:17:28;8.23;;;1.40;;
77876;SDS011;67251;50.844;7.978;2023-03-13T03:19:54;4.45;;;1.20;;
77876;SDS011;67251;50.844;7.978;2023-03-13T03:22:19;8.93;;;1.60;;
77876;SDS011;67251;50.844;7.978;2023-03-13T03:24:45;6.45;;;1.85;;
77876;SDS011;67251;50.844;7.978;2023-03-13T03:27:10;8.13;;;2.08;;
77876;SDS011;67251;50.844;7.978;2023-03-13T03:29:35;5.38;;;1.25;;
77876;SDS011;67251;50.844;7.978;2023-03-13T03:32:01;6.93;;;1.25;;
77876;SDS011;67251;50.844;7.978;2023-03-13T03:34:26;9.15;;;1.45;;
77876;SDS011;67251;50.844;7.978;2023-03-13T03:36:51;9.80;;;1.58;;
77876;SDS011;67251;50.844;7.978;2023-03-13T03:39:17;7.32;;;1.15;;
77876;SDS011;67251;50.844;7.978;2023-03-13T03:41:44;5.35;;;1.02;;
77876;SDS011;67251;50.844;7.978;2023-03-13T03:44:09;9.20;;;1.33;;
77876;SDS011;67251;50.844;7.978;2023-03-13T03:46:35;8.70;;;1.20;;
77876;SDS011;67251;50.844;7.978;2023-03-13T03:49:00;5.50;;;1.27;;
77876;SDS011;67251;50.844;7.978;2023-03-13T03:51:25;6.25;;;1.42;;
77876;SDS011;67251;50.844;7.978;2023-03-13T03:53:51;3.33;;;0.70;;
77876;SDS011;67251;50.844;7.978;2023-03-13T03:56:17;6.45;;;0.88;;
77876;SDS011;67251;50.844;7.978;2023-03-13T03:58:42;4.03;;;0.80;;
77876;SDS011;67251;50.844;7.978;2023-03-13T04:01:08;4.88;;;0.93;;
77876;SDS011;67251;50.844;7.978;2023-03-13T04:03:33;7.35;;;0.90;;
77876;SDS011;67251;50.844;7.978;2023-03-13T04:05:59;4.65;;;0.70;;
77876;SDS011;67251;50.844;7.978;2023-03-13T04:08:24;3.78;;;0.65;;
77876;SDS011;67251;50.844;7.978;2023-03-13T04:10:49;3.08;;;0.70;;
77876;SDS011;67251;50.844;7.978;2023-03-13T04:13:15;2.70;;;0.65;;
77876;SDS011;67251;50.844;7.978;2023-03-13T04:15:40;1.75;;;0.43;;
77876;SDS011;67251;50.844;7.978;2023-03-13T04:18:06;3.67;;;0.77;;
77876;SDS011;67251;50.844;7.978;2023-03-13T04:20:32;2.13;;;0.70;;
77876;SDS011;67251;50.844;7.978;2023-03-13T04:22:58;2.20;;;0.90;;
77876;SDS011;67251;50.844;7.978;2023-03-13T04:25:24;1.75;;;0.40;;
77876;SDS011;67251;50.844;7.978;2023-03-13T04:27:49;2.40;;;0.50;;
77876;SDS011;67251;50.844;7.978;2023-03-13T04:30:15;2.72;;;0.60;;
77876;SDS011;67251;50.844;7.978;2023-03-13T04:32:42;2.67;;;0.63;;
77876;SDS011;67251;50.844;7.978;2023-03-13T04:35:08;3.17;;;0.60;;
77876;SDS011;67251;50.844;7.978;2023-03-13T04:37:33;4.28;;;0.75;;
77876;SDS011;67251;50.844;7.978;2023-03-13T04:39:59;3.28;;;0.70;;
77876;SDS011;67251;50.844;7.978;2023-03-13T04:42:24;2.30;;;0.50;;
77876;SDS011;67251;50.844;7.978;2023-03-13T04:44:50;3.17;;;0.75;;
77876;SDS011;67251;50.844;7.978;2023-03-13T04:47:15;1.75;;;0.70;;
77876;SDS011;67251;50.844;7.978;2023-03-13T04:49:40;4.25;;;0.90;;
77876;SDS011;67251;50.844;7.978;2023-03-13T04:52:06;2.00;;;0.47;;
77876;SDS011;67251;50.844;7.978;2023-03-13T04:54:31;1.92;;;0.47;;
77876;SDS011;67251;50.844;7.978;2023-03-13T04:56:57;1.80;;;0.50;;
77876;SDS011;67251;50.844;7.978;2023-03-13T04:59:22;1.63;;;0.50;;
77876;SDS011;67251;50.844;7.978;2023-03-13T05:01:47;1.40;;;0.30;;
77876;SDS011;67251;50.844;7.978;2023-03-13T05:04:13;3.03;;;0.70;;
77876;SDS011;67251;50.844;7.978;2023-03-13T05:06:38;1.85;;;0.40;;
77876;SDS011;67251;50.844;7.978;2023-03-13T05:09:04;1.58;;;0.50;;
77876;SDS011;67251;50.844;7.978;2023-03-13T05:11:29;2.88;;;0.50;;
77876;SDS011;67251;50.844;7.978;2023-03-13T05:13:56;1.15;;;0.47;;
77876;SDS011;67251;50.844;7.978;2023-03-13T05:16:22;2.13;;;0.40;;
77876;SDS011;67251;50.844;7.978;2023-03-13T05:18:47;2.30;;;0.60;;
77876;SDS011;67251;50.844;7.978;2023-03-13T05:21:12;2.67;;;0.57;;
77876;SDS011;67251;50.844;7.978;2023-03-13T05:23:38;1.15;;;0.47;;
77876;SDS011;67251;50.844;7.978;2023-03-13T05:26:03;1.52;;;0.50;;
77876;SDS011;67251;50.844;7.978;2023-03-13T05:28:29;1.90;;;0.55;;
77876;SDS011;67251;50.844;7.978;2023-03-13T05:30:56;3.80;;;0.50;;
77876;SDS011;67251;50.844;7.978;2023-03-13T05:33:21;2.65;;;0.60;;
77876;SDS011;67251;50.844;7.978;2023-03-13T05:35:47;1.35;;;0.40;;
77876;SDS011;67251;50.844;7.978;2023-03-13T05:38:13;2.55;;;0.40;;
77876;SDS011;67251;50.844;7.978;2023-03-13T05:40:39;1.88;;;0.50;;
77876;SDS011;67251;50.844;7.978;2023-03-13T05:43:04;0.55;;;0.30;;
77876;SDS011;67251;50.844;7.978;2023-03-13T05:45:30;1.73;;;0.50;;
77876;SDS011;67251;50.844;7.978;2023-03-13T05:47:55;2.13;;;0.60;;
77876;SDS011;67251;50.844;7.978;2023-03-13T05:50:23;0.93;;;0.30;;
77876;SDS011;67251;50.844;7.978;2023-03-13T05:52:48;0.65;;;0.25;;
77876;SDS011;67251;50.844;7.978;2023-03-13T05:55:14;1.33;;;0.35;;
77876;SDS011;67251;50.844;7.978;2023-03-13T05:57:42;1.25;;;0.40;;
77876;SDS011;67251;50.844;7.978;2023-03-13T06:00:09;1.42;;;0.40;;
77876;SDS011;67251;50.844;7.978;2023-03-13T06:02:35;3.05;;;0.43;;
77876;SDS011;67251;50.844;7.978;2023-03-13T06:05:00;0.82;;;0.30;;
77876;SDS011;67251;50.844;7.978;2023-03-13T06:07:26;0.52;;;0.20;;
77876;SDS011;67251;50.844;7.978;2023-03-13T06:09:51;0.45;;;0.10;;
77876;SDS011;67251;50.844;7.978;2023-03-13T06:12:16;1.15;;;0.28;;
77876;SDS011;67251;50.844;7.978;2023-03-13T06:14:42;0.73;;;0.30;;
77876;SDS011;67251;50.844;7.978;2023-03-13T06:17:07;0.85;;;0.40;;
77876;SDS011;67251;50.844;7.978;2023-03-13T06:19:33;0.75;;;0.32;;
77876;SDS011;67251;50.844;7.978;2023-03-13T06:21:58;1.88;;;0.55;;
77876;SDS011;67251;50.844;7.978;2023-03-13T06:24:23;2.08;;;0.63;;
77876;SDS011;67251;50.844;7.978;2023-03-13T06:26:49;2.55;;;0.50;;
77876;SDS011;67251;50.844;7.978;2023-03-13T06:29:16;2.13;;;0.57;;
77876;SDS011;67251;50.844;7.978;2023-03-13T06:31:42;2.13;;;0.50;;
77876;SDS011;67251;50.844;7.978;2023-03-13T06:34:11;1.00;;;0.30;;
77876;SDS011;67251;50.844;7.978;2023-03-13T06:36:37;2.17;;;0.60;;
77876;SDS011;67251;50.844;7.978;2023-03-13T06:39:02;1.38;;;0.52;;
77876;SDS011;67251;50.844;7.978;2023-03-13T06:41:29;1.55;;;0.60;;
77876;SDS011;67251;50.844;7.978;2023-03-13T06:43:55;1.55;;;0.70;;
77876;SDS011;67251;50.844;7.978;2023-03-13T06:46:22;1.75;;;0.65;;
77876;SDS011;67251;50.844;7.978;2023-03-13T06:48:49;2.92;;;0.55;;
77876;SDS011;67251;50.844;7.978;2023-03-13T06:51:16;1.65;;;0.60;;
77876;SDS011;67251;50.844;7.978;2023-03-13T06:53:43;2.65;;;0.80;;
77876;SDS011;67251;50.844;7.978;2023-03-13T06:56:08;2.58;;;0.60;;
77876;SDS011;67251;50.844;7.978;2023-03-13T06:58:35;1.13;;;0.40;;
77876;SDS011;67251;50.844;7.978;2023-03-13T07:01:08;1.58;;;0.60;;
77876;SDS011;67251;50.844;7.978;2023-03-13T07:03:35;2.45;;;0.60;;
77876;SDS011;67251;50.844;7.978;2023-03-13T07:06:01;1.35;;;0.52;;
77876;SDS011;67251;50.844;7.978;2023-03-13T07:08:27;1.80;;;0.40;;
77876;SDS011;67251;50.844;7.978;2023-03-13T07:10:53;1.88;;;0.45;;
77876;SDS011;67251;50.844;7.978;2023-03-13T07:13:23;0.70;;;0.30;;
77876;SDS011;67251;50.844;7.978;2023-03-13T07:15:49;1.92;;;0.55;;
77876;SDS011;67251;50.844;7.978;2023-03-13T07:18:14;1.02;;;0.30;;
77876;SDS011;67251;50.844;7.978;2023-03-13T07:20:39;1.58;;;0.50;;
77876;SDS011;67251;50.844;7.978;2023-03-13T07:23:05;1.88;;;0.50;;
77876;SDS011;67251;50.844;7.978;2023-03-13T07:25:30;1.40;;;0.40;;
77876;SDS011;67251;50.844;7.978;2023-03-13T07:27:56;1.95;;;0.63;;
77876;SDS011;67251;50.844;7.978;2023-03-13T07:30:21;1.02;;;0.40;;
77876;SDS011;67251;50.844;7.978;2023-03-13T07:32:47;1.58;;;0.50;;
77876;SDS011;67251;50.844;7.978;2023-03-13T07:35:12;1.70;;;0.50;;
77876;SDS011;67251;50.844;7.978;2023-03-13T07:37:38;3.00;;;0.80;;
77876;SDS011;67251;50.844;7.978;2023-03-13T07:40:04;1.30;;;0.40;;
77876;SDS011;67251;50.844;7.978;2023-03-13T07:42:29;4.03;;;0.57;;
77876;SDS011;67251;50.844;7.978;2023-03-13T07:44:55;1.67;;;0.50;;
77876;SDS011;67251;50.844;7.978;2023-03-13T07:47:20;3.03;;;0.70;;
77876;SDS011;67251;50.844;7.978;2023-03-13T07:49:46;1.48;;;0.50;;
77876;SDS011;67251;50.844;7.978;2023-03-13T07:52:11;1.17;;;0.57;;
77876;SDS011;67251;50.844;7.978;2023-03-13T07:54:36;2.00;;;0.50;;
77876;SDS011;67251;50.844;7.978;2023-03-13T07:57:02;2.25;;;0.90;;
77876;SDS011;67251;50.844;7.978;2023-03-13T07:59:27;2.55;;;0.60;;
77876;SDS011;67251;50.844;7.978;2023-03-13T08:01:53;2.17;;;0.60;;
77876;SDS011;67251;50.844;7.978;2023-03-13T08:04:18;2.05;;;0.60;;
77876;SDS011;67251;50.844;7.978;2023-03-13T08:06:43;2.78;;;0.80;;
77876;SDS011;67251;50.844;7.978;2023-03-13T08:09:09;2.20;;;0.68;;
77876;SDS011;67251;50.844;7.978;2023-03-13T08:11:34;2.65;;;0.77;;
77876;SDS011;67251;50.844;7.978;2023-03-13T08:14:00;2.95;;;0.90;;
77876;SDS011;67251;50.844;7.978;2023-03-13T08:16:26;2.47;;;0.70;;
77876;SDS011;67251;50.844;7.978;2023-03-13T08:18:54;2.60;;;0.80;;
77876;SDS011;67251;50.844;7.978;2023-03-13T08:21:22;2.15;;;0.70;;
77876;SDS011;67251;50.844;7.978;2023-03-13T08:23:51;3.22;;;0.80;;
77876;SDS011;67251;50.844;7.978;2023-03-13T08:26:18;3.40;;;0.73;;
77876;SDS011;67251;50.844;7.978;2023-03-13T08:28:46;2.78;;;0.90;;
77876;SDS011;67251;50.844;7.978;2023-03-13T08:31:17;2.00;;;0.63;;
77876;SDS011;67251;50.844;7.978;2023-03-13T08:33:45;1.80;;;0.70;;
77876;SDS011;67251;50.844;7.978;2023-03-13T08:36:15;4.13;;;1.30;;
77876;SDS011;67251;50.844;7.978;2023-03-13T08:38:49;2.83;;;0.95;;
77876;SDS011;67251;50.844;7.978;2023-03-13T08:41:16;2.70;;;0.90;;
77876;SDS011;67251;50.844;7.978;2023-03-13T08:43:43;3.78;;;0.93;;
77876;SDS011;67251;50.844;7.978;2023-03-13T08:46:10;2.55;;;1.00;;
77876;SDS011;67251;50.844;7.978;2023-03-13T08:48:35;3.88;;;1.08;;
77876;SDS011;67251;50.844;7.978;2023-03-13T08:51:04;3.25;;;1.10;;
77876;SDS011;67251;50.844;7.978;2023-03-13T08:53:35;3.50;;;1.10;;
77876;SDS011;67251;50.844;7.978;2023-03-13T08:56:02;2.60;;;1.00;;
77876;SDS011;67251;50.844;7.978;2023-03-13T08:58:28;3.90;;;1.10;;
77876;SDS011;67251;50.844;7.978;2023-03-13T09:00:59;3.75;;;1.27;;
77876;SDS011;67251;50.844;7.978;2023-03-13T09:03:29;4.05;;;1.00;;
77876;SDS011;67251;50.844;7.978;2023-03-13T09:05:56;4.97;;;1.13;;
77876;SDS011;67251;50.844;7.978;2023-03-13T09:08:22;3.60;;;1.17;;
77876;SDS011;67251;50.844;7.978;2023-03-13T09:10:53;6.22;;;1.08;;
77876;SDS011;67251;50.844;7.978;2023-03-13T09:13:23;4.90;;;1.50;;
77876;SDS011;67251;50.844;7.978;2023-03-13T09:15:53;4.50;;;1.40;;
77876;SDS011;67251;50.844;7.978;2023-03-13T09:18:27;5.07;;;1.50;;
77876;SDS011;67251;50.844;7.978;2023-03-13T09:20:52;5.00;;;1.00;;
77876;SDS011;67251;50.844;7.978;2023-03-13T09:23:19;4.28;;;1.25;;
77876;SDS011;67251;50.844;7.978;2023-03-13T09:25:44;5.13;;;1.08;;
77876;SDS011;67251;50.844;7.978;2023-03-13T09:28:10;3.45;;;1.05;;
77876;SDS011;67251;50.844;7.978;2023-03-13T09:30:36;4.35;;;1.40;;
77876;SDS011;67251;50.844;7.978;2023-03-13T09:33:01;3.05;;;1.08;;
77876;SDS011;67251;50.844;7.978;2023-03-13T09:35:26;6.07;;;1.23;;
77876;SDS011;67251;50.844;7.978;2023-03-13T09:37:53;4.55;;;1.27;;
77876;SDS011;67251;50.844;7.978;2023-03-13T09:40:20;3.67;;;1.25;;
77876;SDS011;67251;50.844;7.978;2023-03-13T09:42:51;5.22;;;1.30;;
77876;SDS011;67251;50.844;7.978;2023-03-13T09:45:40;3.33;;;1.25;;
77876;SDS011;67251;50.844;7.978;2023-03-13T09:48:14;6.63;;;1.42;;
77876;SDS011;67251;50.844;7.978;2023-03-13T09:50:55;4.95;;;1.50;;
77876;SDS011;67251;50.844;7.978;2023-03-13T09:53:31;4.03;;;1.50;;
77876;SDS011;67251;50.844;7.978;2023-03-13T09:56:03;4.95;;;1.55;;
77876;SDS011;67251;50.844;7.978;2023-03-13T09:58:33;4.45;;;1.27;;
77876;SDS011;67251;50.844;7.978;2023-03-13T10:01:02;4.05;;;1.20;;
77876;SDS011;67251;50.844;7.978;2023-03-13T10:05:54;4.57;;;1.40;;
77876;SDS011;67251;50.844;7.978;2023-03-13T10:08:26;4.00;;;1.10;;
77876;SDS011;67251;50.844;7.978;2023-03-13T10:14:05;4.60;;;1.33;;
77876;SDS011;67251;50.844;7.978;2023-03-13T10:19:41;4.25;;;1.35;;
77876;SDS011;67251;50.844;7.978;2023-03-13T10:22:17;5.55;;;1.50;;
77876;SDS011;67251;50.844;7.978;2023-03-13T10:24:50;6.50;;;1.30;;
77876;SDS011;67251;50.844;7.978;2023-03-13T10:27:51;4.05;;;1.17;;
77876;SDS011;67251;50.844;7.978;2023-03-13T10:30:22;5.32;;;1.33;;
77876;SDS011;67251;50.844;7.978;2023-03-13T10:32:48;4.38;;;1.52;;
77876;SDS011;67251;50.844;7.978;2023-03-13T10:35:20;3.35;;;1.08;;
77876;SDS011;67251;50.844;7.978;2023-03-13T10:37:47;4.72;;;1.33;;
77876;SDS011;67251;50.844;7.978;2023-03-13T10:40:20;3.50;;;1.38;;
77876;SDS011;67251;50.844;7.978;2023-03-13T10:42:49;3.25;;;1.33;;
77876;SDS011;67251;50.844;7.978;2023-03-13T10:45:18;4.18;;;1.13;;
77876;SDS011;67251;50.844;7.978;2023-03-13T10:47:52;5.63;;;1.42;;
77876;SDS011;67251;50.844;7.978;2023-03-13T10:50:21;3.83;;;1.20;;
77876;SDS011;67251;50.844;7.978;2023-03-13T10:52:49;3.25;;;1.40;;
77876;SDS011;67251;50.844;7.978;2023-03-13T10:55:16;4.47;;;1.30;;
77876;SDS011;67251;50.844;7.978;2023-03-13T10:58:03;3.30;;;1.20;;
77876;SDS011;67251;50.844;7.978;2023-03-13T11:00:34;5.82;;;1.45;;
77876;SDS011;67251;50.844;7.978;2023-03-13T11:03:06;4.65;;;1.50;;
77876;SDS011;67251;50.844;7.978;2023-03-13T11:05:42;4.78;;;1.45;;
77876;SDS011;67251;50.844;7.978;2023-03-13T11:08:10;4.57;;;1.27;;
77876;SDS011;67251;50.844;7.978;2023-03-13T11:10:50;4.15;;;1.33;;
77876;SDS011;67251;50.844;7.978;2023-03-13T11:22:23;3.58;;;1.20;;
77876;SDS011;67251;50.844;7.978;2023-03-13T11:24:45;3.72;;;1.30;;
77876;SDS011;67251;50.844;7.978;2023-03-13T11:29:57;2.75;;;1.10;;
77876;SDS011;67251;50.844;7.978;2023-03-13T11:32:54;3.17;;;1.08;;
77876;SDS011;67251;50.844;7.978;2023-03-13T11:37:58;3.50;;;1.00;;
77876;SDS011;67251;50.844;7.978;2023-03-13T11:46:20;2.92;;;1.10;;
77876;SDS011;67251;50.844;7.978;2023-03-13T11:54:22;2.63;;;0.90;;
77876;SDS011;67251;50.844;7.978;2023-03-13T11:56:51;2.60;;;0.80;;
77876;SDS011;67251;50.844;7.978;2023-03-13T12:02:24;2.67;;;0.90;;
77876;SDS011;67251;50.844;7.978;2023-03-13T12:05:02;2.40;;;0.77;;
77876;SDS011;67251;50.844;7.978;2023-03-13T12:12:48;2.92;;;0.80;;
77876;SDS011;67251;50.844;7.978;2023-03-13T12:15:21;2.72;;;0.90;;
77876;SDS011;67251;50.844;7.978;2023-03-13T12:18:05;4.10;;;1.05;;
77876;SDS011;67251;50.844;7.978;2023-03-13T12:31:25;3.47;;;1.00;;
77876;SDS011;67251;50.844;7.978;2023-03-13T12:34:05;2.47;;;0.88;;
77876;SDS011;67251;50.844;7.978;2023-03-13T12:36:49;3.50;;;1.17;;
77876;SDS011;67251;50.844;7.978;2023-03-13T12:39:21;3.00;;;1.00;;
77876;SDS011;67251;50.844;7.978;2023-03-13T12:45:11;3.72;;;1.48;;
77876;SDS011;67251;50.844;7.978;2023-03-13T12:53:36;3.03;;;1.30;;
77876;SDS011;67251;50.844;7.978;2023-03-13T12:59:21;3.17;;;1.17;;
77876;SDS011;67251;50.844;7.978;2023-03-13T13:01:52;2.70;;;0.93;;
77876;SDS011;67251;50.844;7.978;2023-03-13T13:04:23;3.40;;;1.40;;
77876;SDS011;67251;50.844;7.978;2023-03-13T13:09:36;3.65;;;1.17;;
77876;SDS011;67251;50.844;7.978;2023-03-13T13:12:22;4.15;;;1.42;;
77876;SDS011;67251;50.844;7.978;2023-03-13T13:19:48;4.45;;;1.70;;
77876;SDS011;67251;50.844;7.978;2023-03-13T13:22:57;4.25;;;1.70;;
77876;SDS011;67251;50.844;7.978;2023-03-13T13:30:00;4.45;;;1.60;;
77876;SDS011;67251;50.844;7.978;2023-03-13T13:32:49;4.95;;;1.35;;
77876;SDS011;67251;50.844;7.978;2023-03-13T13:40:57;4.15;;;1.38;;
77876;SDS011;67251;50.844;7.978;2023-03-13T13:43:23;3.83;;;1.20;;
77876;SDS011;67251;50.844;7.978;2023-03-13T13:46:00;5.32;;;1.70;;
77876;SDS011;67251;50.844;7.978;2023-03-13T13:48:39;5.32;;;1.70;;
77876;SDS011;67251;50.844;7.978;2023-03-13T14:01:45;5.38;;;1.80;;
77876;SDS011;67251;50.844;7.978;2023-03-13T14:06:42;4.78;;;1.50;;
77876;SDS011;67251;50.844;7.978;2023-03-13T14:11:55;4.00;;;1.35;;
77876;SDS011;67251;50.844;7.978;2023-03-13T14:14:21;3.65;;;1.30;;
77876;SDS011;67251;50.844;7.978;2023-03-13T14:16:51;3.90;;;1.23;;
77876;SDS011;67251;50.844;7.978;2023-03-13T14:19:21;4.55;;;1.58;;
77876;SDS011;67251;50.844;7.978;2023-03-13T14:24:13;4.90;;;1.38;;
77876;SDS011;67251;50.844;7.978;2023-03-13T14:26:43;5.53;;;1.90;;
77876;SDS011;67251;50.844;7.978;2023-03-13T14:29:14;4.35;;;1.50;;
77876;SDS011;67251;50.844;7.978;2023-03-13T14:31:48;5.47;;;1.40;;
77876;SDS011;67251;50.844;7.978;2023-03-13T14:34:15;3.35;;;1.30;;
77876;SDS011;67251;50.844;7.978;2023-03-13T14:36:48;4.13;;;1.45;;
77876;SDS011;67251;50.844;7.978;2023-03-13T14:42:09;4.07;;;1.33;;
77876;SDS011;67251;50.844;7.978;2023-03-13T14:44:37;4.43;;;1.17;;
77876;SDS011;67251;50.844;7.978;2023-03-13T14:47:26;3.65;;;1.20;;
77876;SDS011;67251;50.844;7.978;2023-03-13T14:49:55;2.55;;;0.90;;
77876;SDS011;67251;50.844;7.978;2023-03-13T14:52:24;2.70;;;0.90;;
77876;SDS011;67251;50.844;7.978;2023-03-13T14:57:17;3.93;;;0.97;;
77876;SDS011;67251;50.844;7.978;2023-03-13T14:59:46;4.95;;;1.15;;
77876;SDS011;67251;50.844;7.978;2023-03-13T15:02:23;3.00;;;1.05;;
77876;SDS011;67251;50.844;7.978;2023-03-13T15:07:21;5.03;;;1.67;;
77876;SDS011;67251;50.844;7.978;2023-03-13T15:09:49;3.60;;;0.90;;
77876;SDS011;67251;50.844;7.978;2023-03-13T15:12:15;4.40;;;0.90;;
77876;SDS011;67251;50.844;7.978;2023-03-13T15:19:54;3.15;;;0.93;;
77876;SDS011;67251;50.844;7.978;2023-03-13T15:22:25;4.53;;;1.35;;
77876;SDS011;67251;50.844;7.978;2023-03-13T15:25:00;3.10;;;1.00;;
77876;SDS011;67251;50.844;7.978;2023-03-13T15:27:26;4.22;;;0.98;;
77876;SDS011;67251;50.844;7.978;2023-03-13T15:29:51;4.03;;;1.38;;
77876;SDS011;67251;50.844;7.978;2023-03-13T15:34:53;4.43;;;1.42;;
77876;SDS011;67251;50.844;7.978;2023-03-13T15:37:23;4.00;;;1.20;;
77876;SDS011;67251;50.844;7.978;2023-03-13T15:39:49;4.13;;;1.40;;
77876;SDS011;67251;50.844;7.978;2023-03-13T15:42:14;4.07;;;1.40;;
77876;SDS011;67251;50.844;7.978;2023-03-13T15:44:40;4.32;;;1.20;;
77876;SDS011;67251;50.844;7.978;2023-03-13T15:47:05;5.47;;;1.92;;
77876;SDS011;67251;50.844;7.978;2023-03-13T15:49:33;2.95;;;1.00;;
77876;SDS011;67251;50.844;7.978;2023-03-13T15:51:58;2.90;;;1.17;;
77876;SDS011;67251;50.844;7.978;2023-03-13T15:54:24;3.70;;;1.20;;
77876;SDS011;67251;50.844;7.978;2023-03-13T15:56:50;4.70;;;1.50;;
77876;SDS011;67251;50.844;7.978;2023-03-13T15:59:16;4.68;;;1.42;;
77876;SDS011;67251;50.844;7.978;2023-03-13T16:01:42;3.50;;;1.20;;
77876;SDS011;67251;50.844;7.978;2023-03-13T16:04:09;4.55;;;1.70;;
77876;SDS011;67251;50.844;7.978;2023-03-13T16:06:35;4.43;;;1.30;;
77876;SDS011;67251;50.844;7.978;2023-03-13T16:09:01;2.78;;;1.10;;
77876;SDS011;67251;50.844;7.978;2023-03-13T16:11:29;3.63;;;1.00;;
77876;SDS011;67251;50.844;7.978;2023-03-13T16:13:55;4.80;;;1.00;;
77876;SDS011;67251;50.844;7.978;2023-03-13T16:16:22;2.97;;;1.00;;
77876;SDS011;67251;50.844;7.978;2023-03-13T16:18:52;3.35;;;1.05;;
77876;SDS011;67251;50.844;7.978;2023-03-13T16:21:20;2.28;;;0.90;;
77876;SDS011;67251;50.844;7.978;2023-03-13T16:23:47;3.47;;;0.95;;
77876;SDS011;67251;50.844;7.978;2023-03-13T16:26:14;2.10;;;0.70;;
77876;SDS011;67251;50.844;7.978;2023-03-13T16:28:42;3.53;;;0.90;;
77876;SDS011;67251;50.844;7.978;2023-03-13T16:31:12;2.65;;;0.77;;
77876;SDS011;67251;50.844;7.978;2023-03-13T16:33:47;3.03;;;0.90;;
77876;SDS011;67251;50.844;7.978;2023-03-13T16:36:17;2.97;;;0.90;;
77876;SDS011;67251;50.844;7.978;2023-03-13T16:38:48;2.13;;;0.60;;
77876;SDS011;67251;50.844;7.978;2023-03-13T16:41:15;2.28;;;0.70;;
77876;SDS011;67251;50.844;7.978;2023-03-13T16:43:41;3.22;;;0.90;;
77876;SDS011;67251;50.844;7.978;2023-03-13T16:46:10;3.35;;;1.17;;
77876;SDS011;67251;50.844;7.978;2023-03-13T16:48:37;3.53;;;1.33;;
77876;SDS011;67251;50.844;7.978;2023-03-13T16:51:02;3.30;;;0.98;;
77876;SDS011;67251;50.844;7.978;2023-03-13T16:53:28;3.58;;;0.98;;
77876;SDS011;67251;50.844;7.978;2023-03-13T16:55:53;2.80;;;0.90;;
77876;SDS011;67251;50.844;7.978;2023-03-13T16:58:19;3.70;;;1.10;;
77876;SDS011;67251;50.844;7.978;2023-03-13T17:00:45;4.63;;;1.50;;